Have a Safe July 4th! 

Flight Track Log - Related Links

Times and Time Zones

All times are in EDT time to prevent confusion due to time zone crossing. See the DAL2128 flight status page for this flight to view local times or setup timezone preferences in your user account.

Time Position Orientation Groundspeed Altitude Reporting Facility
EDT Latitude Longitude Course Direction KTS MPH feet Rate Location/Type
Fri 02:22:27 PM 28.4000 -81.3000 350° North 173 199 900  Level Orlando TRACON
Fri 02:24:03 PM 28.3333 -81.2333 139° Southeast 248 285 5,000 2,833 Climbing Orlando TRACON
Fri 02:24:51 PM 28.3333 -81.1667 90° East 258 297 7,700 3,118 Climbing Orlando TRACON
Fri 02:25:00 PM 28.7845 -81.3500 North  Level FlightAware Approximate
Fri 02:25:45 PM 28.3833 -81.1167 41° Northeast 306 352 10,300  Level Orlando TRACON
Fri 02:26:00 PM 28.9092 -81.3652 350° North  Level FlightAware Approximate
Fri 02:26:51 PM 28.4833 -81.1500 344° North 390 449 11,400  Level Orlando TRACON
Fri 02:27:00 PM 29.0345 -81.3736 350° North  Level FlightAware Approximate
Fri 02:27:51 PM 28.5833 -81.2000 336° Northwest 416 479 13,400  Level Orlando TRACON
Fri 02:29:28 PM 28.7653 -81.2275 352° North 453 521 16,000 1,605 Climbing Jacksonville Center
Fri 02:30:28 PM 28.8967 -81.2278 360° North 445 512 17,600 1,500 Climbing Jacksonville Center
Fri 02:31:28 PM 29.0178 -81.2306 359° North 432 497 19,000 650 Climbing Jacksonville Center
Fri 02:32:28 PM 29.1308 -81.2619 346° North 419 482 18,900  Descending Jacksonville Center
Fri 02:33:27 PM 29.2356 -81.2958 344° North 403 464 19,000 908 Climbing Jacksonville Center
Fri 02:34:27 PM 29.3467 -81.3297 345° North 403 464 20,700 1,785 Climbing Jacksonville Center
Fri 02:35:28 PM 29.4578 -81.3661 344° North 403 464 22,600 1,150 Climbing Jacksonville Center
Fri 02:36:27 PM 29.5708 -81.3978 346° North 403 464 23,000 750 Climbing Jacksonville Center
Fri 02:37:28 PM 29.6861 -81.4342 345° North 415 478 24,100 1,289 Climbing Jacksonville Center
Fri 02:38:28 PM 29.8014 -81.4828 340° North 426 490 25,600 1,462 Climbing Jacksonville Center
Fri 02:39:27 PM 29.8944 -81.5772 319° Northwest 434 499 27,000 1,412 Climbing Jacksonville Center
Fri 02:40:27 PM 29.9892 -81.6744 318° Northwest 441 507 28,400 1,000 Climbing Jacksonville Center
Fri 02:41:27 PM 30.0797 -81.7572 322° Northwest 457 526 29,000 300 Climbing Jacksonville Center
Fri 02:42:27 PM 30.1806 -81.8256 330° Northwest 448 516 29,000  Level Jacksonville Center
Fri 02:43:27 PM 30.3061 -81.8364 356° North 429 494 29,000  Level Jacksonville Center
Fri 02:44:27 PM 30.4356 -81.8494 355° North 442 509 29,000  Level Jacksonville Center
Fri 02:45:28 PM 30.5692 -81.8647 354° North 465 535 29,000  Level Jacksonville Center
Fri 02:46:28 PM 30.6989 -81.8778 355° North 470 541 29,000  Level Jacksonville Center
Fri 02:47:28 PM 30.8306 -81.8908 355° North 465 535 29,000  Level Jacksonville Center
Fri 02:48:28 PM 30.9600 -81.9017 356° North 465 535 29,000  Level Jacksonville Center
Fri 02:49:27 PM 31.0817 -81.9561 339° North 465 535 29,000  Level Jacksonville Center
Fri 02:50:27 PM 31.1969 -82.0281 332° Northwest 465 535 29,000  Level Jacksonville Center
Fri 02:51:28 PM 31.3061 -82.1144 326° Northwest 470 541 29,000  Level Jacksonville Center
Fri 02:52:27 PM 31.4192 -82.1939 329° Northwest 470 541 29,000  Level Jacksonville Center
Fri 02:53:28 PM 31.5344 -82.2614 333° Northwest 475 547 29,000  Level Jacksonville Center
Fri 02:54:28 PM 31.6536 -82.3289 334° Northwest 469 540 29,000  Level Jacksonville Center
Fri 02:55:28 PM 31.7628 -82.4086 328° Northwest 464 534 29,000  Level Jacksonville Center
Fri 02:57:17 PM 31.9592 -82.5678 326° Northwest 480 552 29,000 71 Level Atlanta Center
Fri 02:58:17 PM 32.0686 -82.6542 326° Northwest 480 552 29,200 850 Climbing Atlanta Center
Fri 02:59:17 PM 32.1719 -82.7433 324° Northwest 466 536 30,700 900 Climbing Atlanta Center
Fri 03:00:17 PM 32.2769 -82.8278 326° Northwest 461 531 31,000 1,050 Climbing Atlanta Center
Fri 03:01:17 PM 32.3925 -82.8900 336° Northwest 450 518 32,800 1,000 Climbing Atlanta Center
Fri 03:02:17 PM 32.5097 -82.9428 339° North 440 506 33,000 100 Climbing Atlanta Center
Fri 03:03:17 PM 32.6292 -82.9956 340° North 451 519 33,000  Level Atlanta Center
Fri 03:04:17 PM 32.7508 -83.0483 340° North 456 525 33,000  Level Atlanta Center
Fri 03:05:18 PM 32.8786 -83.1064 339° North 451 519 33,000  Level Atlanta Center
Fri 03:06:18 PM 33.0042 -83.1494 344° North 457 526 33,000  Level Atlanta Center
Fri 03:07:17 PM 33.1378 -83.1631 355° North 472 543 33,000  Level Atlanta Center
Fri 03:08:17 PM 33.2669 -83.1419 North 487 560 33,000  Level Atlanta Center
Fri 03:09:17 PM 33.3878 -83.0858 21° North 465 535 33,000  Level Atlanta Center
Fri 03:10:17 PM 33.5103 -83.0247 23° Northeast 465 535 33,000  Level Atlanta Center
Fri 03:11:17 PM 33.6164 -82.9661 25° Northeast 474 545 33,000  Level Atlanta Center
Fri 03:12:17 PM 33.7411 -82.9047 22° Northeast 474 545 33,000  Level Atlanta Center
Fri 03:13:17 PM 33.8678 -82.8503 20° North 474 545 33,000  Level Atlanta Center
Fri 03:14:17 PM 33.9903 -82.7961 20° North 474 545 33,000  Level Atlanta Center
Fri 03:15:17 PM 34.1172 -82.7442 19° North 474 545 33,000  Level Atlanta Center
Fri 03:16:17 PM 34.2483 -82.7144 11° North 474 545 33,000  Level Atlanta Center
Fri 03:17:17 PM 34.3797 -82.6972 North 474 545 33,000  Level Atlanta Center
Fri 03:18:17 PM 34.5150 -82.6775 North 479 551 33,000  Level Atlanta Center
Fri 03:19:17 PM 34.6589 -82.6700 North 479 551 33,000  Level Atlanta Center
Fri 03:20:17 PM 34.7928 -82.6806 356° North 473 544 33,000  Level Atlanta Center
Fri 03:21:17 PM 34.9281 -82.6606 North 473 544 33,000  Level Atlanta Center
Fri 03:22:17 PM 35.0594 -82.6431 North 478 550 33,000  Level Atlanta Center
Fri 03:23:17 PM 35.1947 -82.6206 North 484 557 33,000  Level Atlanta Center
Fri 03:24:17 PM 35.3281 -82.6006 North 484 557 33,000  Level Atlanta Center
Fri 03:25:17 PM 35.4633 -82.5750 North 484 557 33,000  Level Atlanta Center
Fri 03:26:17 PM 35.6031 -82.5572 North 489 563 33,000  Level Atlanta Center
Fri 03:27:17 PM 35.7319 -82.5319 North 484 557 33,000  Level Atlanta Center
Fri 03:28:17 PM 35.8653 -82.5117 North 478 550 33,000  Level Atlanta Center
Fri 03:29:17 PM 36.0006 -82.4858 North 486 559 33,000  Level Atlanta Center
Fri 03:30:17 PM 36.1358 -82.4653 North 486 559 33,000  Level Atlanta Center
Fri 03:31:17 PM 36.2689 -82.4422 North 486 559 33,000  Level Atlanta Center
Fri 03:32:17 PM 36.4042 -82.4214 North 486 559 33,000  Level Atlanta Center
Fri 03:33:17 PM 36.5394 -82.4006 North 481 554 33,000  Level Atlanta Center
Fri 03:34:47 PM 36.7431 -82.3672 North 495 570 33,000  Level Indianapolis Center
Fri 03:35:49 PM 36.8797 -82.3456 North 497 572 33,000  Level Indianapolis Center
Fri 03:36:50 PM 37.0156 -82.3225 North 496 571 33,000  Level Indianapolis Center
Fri 03:37:52 PM 37.1508 -82.3003 North 493 567 33,000  Level Indianapolis Center
Fri 03:38:54 PM 37.2881 -82.2786 North 495 570 33,000  Level Indianapolis Center
Fri 03:39:55 PM 37.4469 -82.2508 North 494 568 33,000  Level Indianapolis Center
Fri 03:40:57 PM 37.5831 -82.2283 North 494 568 33,000  Level Indianapolis Center
Fri 03:41:59 PM 37.7194 -82.2050 North 493 567 33,000  Level Indianapolis Center
Fri 03:43:00 PM 37.8561 -82.1819 North 495 570 33,000  Level Indianapolis Center
Fri 03:44:02 PM 37.9858 -82.1600 North 493 567 33,000  Level Indianapolis Center
Fri 03:45:03 PM 38.1231 -82.1356 North 494 568 33,000  Level Indianapolis Center
Fri 03:46:05 PM 38.2608 -82.1125 North 495 570 33,000  Level Indianapolis Center
Fri 03:47:07 PM 38.3986 -82.0894 North 496 571 33,000  Level Indianapolis Center
Fri 03:48:08 PM 38.5636 -82.0606 North 495 570 33,000  Level Indianapolis Center
Fri 03:49:10 PM 38.7006 -82.0375 North 492 566 33,000  Level Indianapolis Center
Fri 03:50:12 PM 38.8381 -82.0400 359° North 488 562 33,000  Level Indianapolis Center
Fri 03:51:13 PM 38.9739 -82.0625 353° North 487 560 33,000  Level Indianapolis Center
Fri 03:52:15 PM 39.1086 -82.0842 353° North 486 559 33,000  Level Indianapolis Center
Fri 03:53:16 PM 39.2450 -82.1053 353° North 491 565 33,000  Level Indianapolis Center
Fri 03:54:18 PM 39.3803 -82.1256 353° North 487 560 33,000  Level Indianapolis Center
Fri 03:55:20 PM 39.5222 -82.1486 353° North 491 565 33,000  Level Indianapolis Center
Fri 03:56:21 PM 39.6594 -82.1700 353° North 493 567 33,000  Level Indianapolis Center
Fri 03:57:23 PM 39.7953 -82.1925 353° North 489 563 33,000  Level Indianapolis Center
Fri 03:58:24 PM 39.9317 -82.2136 353° North 491 565 33,000  Level Indianapolis Center
Fri 03:59:26 PM 40.0919 -82.2417 352° North 494 568 33,000  Level Indianapolis Center
Fri 04:00:28 PM 40.2289 -82.2631 353° North 494 568 33,000 -537 Level Indianapolis Center
Fri 04:01:29 PM 40.3578 -82.2844 353° North 492 566 31,900 -1,415 Descending Indianapolis Center
Fri 04:02:31 PM 40.4958 -82.3086 352° North 493 567 30,100 -927 Descending Indianapolis Center
Fri 04:03:32 PM 40.6322 -82.3469 348° North 492 566 30,000 -49 Descending Indianapolis Center
Fri 04:04:34 PM 40.7683 -82.3867 348° North 494 568 30,000 -244 Level Indianapolis Center
Fri 04:05:35 PM 40.9031 -82.4258 348° North 490 564 29,500 -1,951 Descending Indianapolis Center
Fri 04:06:37 PM 41.0381 -82.4639 348° North 489 563 26,000 -2,683 Descending Indianapolis Center
Fri 04:07:38 PM 41.1728 -82.5031 348° North 489 563 24,000 -1,659 Descending Indianapolis Center
Fri 04:08:40 PM 41.3122 -82.5875 336° Northwest 469 540 22,600 -2,000 Descending Indianapolis Center
Fri 04:09:41 PM 41.4061 -82.6975 319° Northwest 451 519 19,900 -2,537 Descending Indianapolis Center
Fri 04:10:43 PM 41.4956 -82.8031 319° Northwest 432 497 17,400 -2,650 Descending Indianapolis Center
Fri 04:11:41 PM 41.5800 -82.9067 317° Northwest 403 464 14,600 -2,550 Descending Cleveland Center
Fri 04:12:43 PM 41.6592 -83.0011 318° Northwest 391 450 12,300 -1,268 Descending Cleveland Center
Fri 04:13:44 PM 41.7450 -83.0878 323° Northwest 336 387 12,000 -148 Descending Cleveland Center
Fri 04:14:45 PM 41.8228 -83.1467 331° Northwest 307 353 12,000  Level Cleveland Center
Fri 04:15:46 PM 41.9033 -83.1806 343° North 316 364 12,000  Level Cleveland Center
Fri 04:16:47 PM 41.9903 -83.2092 346° North 317 365 12,000 -488 Level Cleveland Center
Fri 04:17:49 PM 42.0814 -83.2356 348° North 313 360 11,000 -927 Descending Cleveland Center
Fri 04:18:50 PM 42.1614 -83.2053 16° North 310 357 10,100 -952 Descending Cleveland Center
Fri 04:19:55 PM 42.2417 -83.1553 25° Northeast 293 337 9,000 -976 Descending Cleveland Center
Fri 04:20:53 PM 42.3031 -83.1183 24° Northeast 232 267 8,100 -1,109 Descending Cleveland Center
Fri 04:21:54 PM 42.3622 -83.0814 25° Northeast 226 260 6,800 -1,033 Descending Cleveland Center
Fri 04:22:55 PM 42.4214 -83.0472 23° Northeast 228 262 6,000 -393 Descending Cleveland Center
Fri 04:23:56 PM 42.4783 -83.0156 22° Northeast 223 257 6,000  Level Cleveland Center
Fri 04:24:58 PM 42.5081 -83.0872 299° West 210 242 6,000  Level Cleveland Center
Fri 04:25:59 PM 42.4733 -83.1450 231° Southwest 197 227 6,000 -298 Level Cleveland Center
Fri 04:26:59 PM 42.4244 -83.1850 211° Southwest 194 223 5,400 -893 Descending Cleveland Center
Fri 04:28:00 PM 42.3778 -83.2197 209° Southwest 192 221 4,200 -1,180 Descending Cleveland Center

Login

Don't have an account? Register now (free) for customized features, flight alerts, and more!